Time;durP1;ratioP1;P1;durP2;ratioP2;P2;SDS_P1;SDS_P2;PMS_P1;PMS_P2;Temp;Humidity;BMP_temperature;BMP_pressure;BME280_temperature;BME280_humidity;BME280_pressure;Samples;Min_cycle;Max_cycle;Signal;HPM_P1;HPM_P2
2023/07/25 00:00:09;;;;;;;2.28;0.50;;;19.60;94.00;;;;;;5124008;28;20031;-79
2023/07/25 00:02:35;;;;;;;1.65;0.25;;;19.60;93.90;;;;;;5124473;28;20052;-79
2023/07/25 00:05:02;;;;;;;1.95;0.80;;;19.60;94.10;;;;;;5124578;28;20106;-79
2023/07/25 00:07:28;;;;;;;4.60;0.80;;;19.60;94.00;;;;;;5127210;28;20032;-78
2023/07/25 00:09:54;;;;;;;2.17;0.70;;;19.60;93.20;;;;;;5125072;28;20038;-78
2023/07/25 00:12:19;;;;;;;2.70;0.40;;;19.50;93.20;;;;;;5120088;28;20039;-77
2023/07/25 00:14:45;;;;;;;2.70;0.60;;;19.50;93.60;;;;;;5116278;28;20375;-76
2023/07/25 00:17:10;;;;;;;2.78;0.40;;;19.50;93.90;;;;;;5096460;28;20028;-77
2023/07/25 00:19:36;;;;;;;1.40;0.30;;;19.60;94.00;;;;;;5096729;28;20492;-76
2023/07/25 00:22:02;;;;;;;2.30;0.50;;;19.60;94.10;;;;;;5115389;28;20479;-77
2023/07/25 00:24:27;;;;;;;2.25;0.40;;;19.70;94.10;;;;;;5115967;28;20035;-77
2023/07/25 00:26:53;;;;;;;1.50;0.30;;;19.70;94.00;;;;;;5117591;28;20031;-77
2023/07/25 00:29:19;;;;;;;5.03;0.68;;;19.70;93.90;;;;;;5116503;28;20028;-77
2023/07/25 00:31:44;;;;;;;2.58;0.40;;;19.70;93.30;;;;;;5118877;28;20498;-77
2023/07/25 00:34:10;;;;;;;2.90;0.45;;;19.60;93.30;;;;;;5121386;28;20046;-77
2023/07/25 00:36:36;;;;;;;2.30;0.40;;;19.50;92.90;;;;;;5123313;28;20027;-77
2023/07/25 00:39:01;;;;;;;1.35;0.35;;;19.30;93.10;;;;;;5119944;28;20463;-77
2023/07/25 00:41:27;;;;;;;5.07;0.57;;;19.30;93.50;;;;;;5118717;28;20031;-78
2023/07/25 00:43:52;;;;;;;2.92;0.50;;;19.30;93.70;;;;;;5105094;28;20028;-77
2023/07/25 00:46:18;;;;;;;2.22;0.70;;;19.30;93.70;;;;;;5090046;28;20032;-78
2023/07/25 00:48:44;;;;;;;2.63;0.47;;;19.30;93.40;;;;;;5107408;28;20036;-78
2023/07/25 00:51:10;;;;;;;7.72;0.60;;;19.20;93.40;;;;;;5108383;28;20042;-78
2023/07/25 00:53:36;;;;;;;2.90;0.52;;;19.20;93.60;;;;;;5128668;28;20106;-80
2023/07/25 00:56:02;;;;;;;3.58;0.50;;;19.20;93.50;;;;;;5104518;28;20059;-79
2023/07/25 00:58:30;;;;;;;3.03;0.75;;;19.10;93.50;;;;;;5101227;28;20051;-79
2023/07/25 01:01:07;;;;;;;2.42;0.60;;;19.10;93.60;;;;;;5105901;28;20038;-79
2023/07/25 01:03:34;;;;;;;4.40;0.50;;;19.10;93.90;;;;;;5104685;28;20043;-78
2023/07/25 01:06:03;;;;;;;3.92;1.13;;;19.20;94.00;;;;;;5104848;28;20088;-79
2023/07/25 01:08:29;;;;;;;3.55;0.50;;;19.20;93.70;;;;;;5110200;28;20024;-78
2023/07/25 01:10:55;;;;;;;2.47;0.55;;;19.30;93.90;;;;;;5103642;28;20036;-77
2023/07/25 01:13:22;;;;;;;3.70;0.57;;;19.30;94.00;;;;;;5110693;28;20028;-78
2023/07/25 01:15:50;;;;;;;2.90;0.43;;;19.30;94.10;;;;;;5112842;28;20028;-78
2023/07/25 01:18:16;;;;;;;1.58;0.40;;;19.30;94.20;;;;;;5115114;28;20028;-78
2023/07/25 01:20:42;;;;;;;4.88;0.40;;;19.40;93.90;;;;;;5109668;28;20035;-79
2023/07/25 01:23:10;;;;;;;1.55;0.50;;;19.30;94.10;;;;;;5109567;28;20036;-78
2023/07/25 01:25:36;;;;;;;2.58;0.40;;;19.40;94.10;;;;;;5108813;28;20024;-77
2023/07/25 01:28:02;;;;;;;3.58;0.38;;;19.40;94.00;;;;;;5107615;28;20081;-79
2023/07/25 01:30:28;;;;;;;2.38;0.60;;;19.40;93.90;;;;;;5109912;28;20112;-78
2023/07/25 01:32:54;;;;;;;1.95;0.40;;;19.50;94.20;;;;;;5109267;28;20032;-78
2023/07/25 01:35:20;;;;;;;2.85;0.40;;;19.50;93.90;;;;;;5108353;28;20402;-78
2023/07/25 01:37:46;;;;;;;4.20;0.90;;;19.50;94.00;;;;;;5106238;28;20060;-78
2023/07/25 01:40:12;;;;;;;3.13;0.50;;;19.60;93.70;;;;;;5107260;28;20099;-78
2023/07/25 01:42:38;;;;;;;2.47;0.40;;;19.50;93.80;;;;;;5108443;28;20079;-78
2023/07/25 01:45:04;;;;;;;2.97;0.50;;;19.50;93.90;;;;;;5108278;28;20471;-77
2023/07/25 01:47:30;;;;;;;4.57;0.30;;;19.50;93.90;;;;;;5103164;28;20054;-78
2023/07/25 01:49:55;;;;;;;2.05;0.32;;;19.50;93.80;;;;;;5100409;28;20107;-78
2023/07/25 01:52:21;;;;;;;4.22;0.60;;;19.50;93.80;;;;;;5103108;28;20168;-78
2023/07/25 01:54:48;;;;;;;3.40;0.50;;;19.60;93.90;;;;;;5108542;28;20058;-77
2023/07/25 01:57:14;;;;;;;2.70;0.50;;;19.50;93.80;;;;;;5097032;28;20476;-77
2023/07/25 01:59:40;;;;;;;3.03;0.50;;;19.50;93.70;;;;;;5114256;28;20031;-77
2023/07/25 02:02:06;;;;;;;4.15;0.50;;;19.50;93.70;;;;;;5116678;28;20035;-77
2023/07/25 02:04:31;;;;;;;2.53;0.40;;;19.50;93.70;;;;;;5115279;28;20027;-77
2023/07/25 02:06:57;;;;;;;3.42;0.52;;;19.50;93.80;;;;;;5098187;28;20031;-77
2023/07/25 02:09:23;;;;;;;5.05;0.68;;;19.50;93.70;;;;;;5118230;28;20032;-77
2023/07/25 02:11:48;;;;;;;3.50;0.73;;;19.50;93.70;;;;;;5119883;28;20039;-77
2023/07/25 02:14:14;;;;;;;2.50;0.40;;;19.50;93.70;;;;;;5120484;28;20028;-77
2023/07/25 02:16:40;;;;;;;2.75;0.60;;;19.60;93.70;;;;;;5104305;28;20032;-78
2023/07/25 02:19:06;;;;;;;3.92;0.70;;;19.60;93.60;;;;;;5124671;28;20111;-77
2023/07/25 02:21:32;;;;;;;2.33;0.40;;;19.50;93.30;;;;;;5116844;28;20103;-78
2023/07/25 02:23:58;;;;;;;3.83;0.60;;;19.50;93.40;;;;;;5117916;28;20039;-75
2023/07/25 02:26:23;;;;;;;2.13;0.40;;;19.40;93.50;;;;;;5114444;28;20039;-75
2023/07/25 02:28:49;;;;;;;2.70;0.80;;;19.50;93.60;;;;;;5113836;28;20080;-75
2023/07/25 02:31:15;;;;;;;1.90;0.40;;;19.50;93.70;;;;;;5114341;28;20375;-75
2023/07/25 02:33:40;;;;;;;1.48;0.30;;;19.40;93.70;;;;;;5118020;28;20027;-76
2023/07/25 02:36:06;;;;;;;1.65;0.50;;;19.50;93.70;;;;;;5118629;28;20024;-75
2023/07/25 02:38:32;;;;;;;2.63;0.47;;;19.50;93.60;;;;;;5099776;28;20042;-75
2023/07/25 02:40:57;;;;;;;1.50;0.38;;;19.50;93.70;;;;;;5118286;28;20028;-75
2023/07/25 02:43:23;;;;;;;2.78;0.57;;;19.50;93.80;;;;;;5118793;28;20042;-76
2023/07/25 02:45:50;;;;;;;2.65;0.35;;;19.50;93.70;;;;;;5119004;28;20031;-76
2023/07/25 02:48:16;;;;;;;3.13;0.50;;;19.50;93.60;;;;;;5118438;28;20383;-75
2023/07/25 02:50:42;;;;;;;2.72;0.40;;;19.50;93.60;;;;;;5119821;28;20036;-76
2023/07/25 02:53:07;;;;;;;2.15;0.43;;;19.50;93.60;;;;;;5119919;28;20036;-76
2023/07/25 02:55:33;;;;;;;4.50;0.70;;;19.40;93.60;;;;;;5100568;28;20055;-76
2023/07/25 02:57:59;;;;;;;3.92;0.45;;;19.40;93.70;;;;;;5119269;28;20536;-76
2023/07/25 03:00:25;;;;;;;2.75;0.40;;;19.40;93.70;;;;;;5099426;28;20035;-75
2023/07/25 03:02:51;;;;;;;4.22;0.60;;;19.40;93.70;;;;;;5120160;28;20035;-76
2023/07/25 03:05:17;;;;;;;1.60;0.50;;;19.40;93.70;;;;;;5119248;28;20051;-75
2023/07/25 03:07:44;;;;;;;1.95;0.50;;;19.40;93.70;;;;;;5118146;28;20081;-76
2023/07/25 03:10:09;;;;;;;3.30;0.70;;;19.40;93.60;;;;;;5117851;28;20036;-75
2023/07/25 03:12:35;;;;;;;1.75;0.50;;;19.40;93.60;;;;;;5099968;28;20372;-76
2023/07/25 03:15:02;;;;;;;2.35;0.30;;;19.40;93.60;;;;;;5118942;28;20031;-76
2023/07/25 03:17:30;;;;;;;2.30;0.38;;;19.50;93.70;;;;;;5100073;28;20062;-76
2023/07/25 03:19:55;;;;;;;3.72;0.60;;;19.50;93.70;;;;;;5119438;28;20435;-75
2023/07/25 03:22:21;;;;;;;3.58;0.40;;;19.40;93.60;;;;;;5118709;28;20055;-76
2023/07/25 03:24:48;;;;;;;2.17;0.47;;;19.40;93.60;;;;;;5119285;28;20027;-76
2023/07/25 03:27:14;;;;;;;3.75;0.80;;;19.40;93.50;;;;;;5120187;28;20065;-76
2023/07/25 03:29:40;;;;;;;2.90;0.50;;;19.40;93.50;;;;;;5119878;28;20110;-76
2023/07/25 03:32:06;;;;;;;4.15;0.50;;;19.40;93.50;;;;;;5102913;28;20107;-76
2023/07/25 03:34:32;;;;;;;1.33;0.38;;;19.30;93.40;;;;;;5084663;28;20058;-76
2023/07/25 03:36:57;;;;;;;1.73;0.40;;;19.30;93.50;;;;;;5119444;28;20024;-76
2023/07/25 03:39:23;;;;;;;3.08;0.50;;;19.30;93.50;;;;;;5119682;28;20472;-76
2023/07/25 03:41:49;;;;;;;1.95;0.75;;;19.30;93.50;;;;;;5119444;28;20031;-76
2023/07/25 03:44:19;;;;;;;3.25;0.55;;;19.30;93.60;;;;;;5120478;28;20483;-76
2023/07/25 03:46:45;;;;;;;2.28;0.45;;;19.30;93.60;;;;;;5104349;28;20036;-76
2023/07/25 03:49:11;;;;;;;1.88;0.50;;;19.30;93.60;;;;;;5120663;28;20032;-76
2023/07/25 03:51:37;;;;;;;1.25;0.45;;;19.20;93.60;;;;;;5122429;28;20032;-76
2023/07/25 03:54:04;;;;;;;3.22;0.60;;;19.20;93.60;;;;;;5118878;28;20036;-76
2023/07/25 03:56:29;;;;;;;3.17;0.47;;;19.20;93.60;;;;;;5117211;28;20131;-76
2023/07/25 03:58:55;;;;;;;3.00;0.50;;;19.30;93.70;;;;;;5100991;28;20456;-76
2023/07/25 04:01:21;;;;;;;2.25;0.30;;;19.30;93.70;;;;;;5100509;28;20062;-76
2023/07/25 04:03:46;;;;;;;0.95;0.32;;;19.30;93.70;;;;;;5122439;28;20055;-76
2023/07/25 04:06:12;;;;;;;1.77;0.40;;;19.30;93.70;;;;;;5117761;28;20096;-75
2023/07/25 04:08:38;;;;;;;3.28;0.60;;;19.30;93.70;;;;;;5116929;28;20600;-76
2023/07/25 04:11:03;;;;;;;4.10;0.50;;;19.30;93.70;;;;;;5117315;28;20036;-76
2023/07/25 04:13:29;;;;;;;3.72;0.52;;;19.30;93.60;;;;;;5122985;28;20032;-76
2023/07/25 04:15:54;;;;;;;1.73;0.43;;;19.30;93.60;;;;;;5123816;28;20090;-76
2023/07/25 04:18:20;;;;;;;2.35;0.60;;;19.30;93.60;;;;;;5123500;28;20028;-76
2023/07/25 04:20:46;;;;;;;3.75;0.70;;;19.30;93.60;;;;;;5122540;28;20051;-76
2023/07/25 04:23:11;;;;;;;2.35;0.52;;;19.30;93.60;;;;;;5122808;28;20038;-76
2023/07/25 04:25:37;;;;;;;7.15;1.02;;;19.20;93.50;;;;;;5105690;28;20076;-76
2023/07/25 04:28:03;;;;;;;2.75;0.50;;;19.30;93.60;;;;;;5122594;28;20032;-77
2023/07/25 04:30:29;;;;;;;3.88;0.50;;;19.30;93.60;;;;;;5124380;28;20039;-76
2023/07/25 04:32:54;;;;;;;2.25;0.60;;;19.30;93.60;;;;;;5104381;28;20058;-76
2023/07/25 04:35:20;;;;;;;4.05;0.68;;;19.30;93.60;;;;;;5122340;28;20038;-76
2023/07/25 04:37:45;;;;;;;2.13;0.50;;;19.30;93.60;;;;;;5122892;28;20035;-76
2023/07/25 04:40:11;;;;;;;3.20;0.50;;;19.30;93.50;;;;;;5104367;28;20053;-76
2023/07/25 04:42:37;;;;;;;2.08;0.35;;;19.30;93.50;;;;;;5124098;28;20046;-76
2023/07/25 04:45:04;;;;;;;2.13;0.40;;;19.20;93.50;;;;;;5125695;28;20023;-76
2023/07/25 04:47:29;;;;;;;3.70;0.60;;;19.30;93.60;;;;;;5124476;28;20392;-76
2023/07/25 04:49:55;;;;;;;3.75;0.50;;;19.30;93.60;;;;;;5122786;28;20032;-76
2023/07/25 04:52:22;;;;;;;2.88;0.95;;;19.30;93.60;;;;;;5123250;28;20463;-76
2023/07/25 04:54:47;;;;;;;4.20;0.52;;;19.30;93.60;;;;;;5122970;28;20047;-76
2023/07/25 04:57:13;;;;;;;3.38;0.70;;;19.30;93.60;;;;;;5104233;28;20032;-76
2023/07/25 04:59:39;;;;;;;2.55;0.45;;;19.30;93.50;;;;;;5121493;28;20030;-76
2023/07/25 05:02:04;;;;;;;2.28;0.73;;;19.30;93.50;;;;;;5120073;28;20031;-76
2023/07/25 05:04:30;;;;;;;5.97;1.10;;;19.30;93.50;;;;;;5119834;28;20035;-77
2023/07/25 05:06:56;;;;;;;4.05;0.60;;;19.30;93.30;;;;;;5120170;28;20037;-76
2023/07/25 05:09:21;;;;;;;3.13;0.55;;;19.30;93.20;;;;;;5102128;28;20023;-76
2023/07/25 05:11:48;;;;;;;2.17;0.40;;;19.20;93.30;;;;;;5119699;28;20077;-77
2023/07/25 05:14:13;;;;;;;2.70;0.55;;;19.30;93.40;;;;;;5120228;28;20035;-76
2023/07/25 05:16:39;;;;;;;3.63;0.57;;;19.30;93.40;;;;;;5120358;28;20027;-76
2023/07/25 05:19:04;;;;;;;3.17;0.45;;;19.30;93.40;;;;;;5101619;28;20024;-76
2023/07/25 05:21:30;;;;;;;2.13;0.50;;;19.30;93.40;;;;;;5084355;28;20035;-77
2023/07/25 05:23:56;;;;;;;3.03;0.57;;;19.30;93.30;;;;;;5119839;28;20380;-77
2023/07/25 05:26:21;;;;;;;1.80;0.55;;;19.30;93.30;;;;;;5119768;28;20035;-76
2023/07/25 05:28:47;;;;;;;3.70;0.70;;;19.20;93.40;;;;;;5120027;28;20447;-77
2023/07/25 05:31:13;;;;;;;4.05;0.70;;;19.30;93.00;;;;;;5119636;28;20525;-77
2023/07/25 05:33:39;;;;;;;2.70;0.50;;;19.20;92.70;;;;;;5119578;28;20027;-77
2023/07/25 05:36:04;;;;;;;4.60;0.75;;;19.20;93.00;;;;;;5100680;28;20073;-76
2023/07/25 05:38:30;;;;;;;7.45;1.25;;;19.20;93.00;;;;;;5120090;28;20058;-76
2023/07/25 05:40:56;;;;;;;3.70;0.90;;;19.10;92.70;;;;;;5120499;28;20032;-76
2023/07/25 05:43:22;;;;;;;3.83;0.95;;;19.00;92.70;;;;;;5101457;28;20433;-76
2023/07/25 05:45:48;;;;;;;3.63;0.70;;;19.00;92.80;;;;;;5101960;28;20122;-77
2023/07/25 05:48:13;;;;;;;3.53;0.85;;;18.90;92.90;;;;;;5119690;28;20384;-76
2023/07/25 05:50:39;;;;;;;2.70;0.80;;;19.00;92.90;;;;;;5120346;28;20028;-76
2023/07/25 05:53:05;;;;;;;5.18;1.23;;;18.90;92.90;;;;;;5120209;28;20073;-77
2023/07/25 05:55:30;;;;;;;3.33;0.57;;;18.80;92.80;;;;;;5121476;28;20131;-76
2023/07/25 05:57:56;;;;;;;3.90;0.75;;;18.80;93.20;;;;;;5120533;28;20532;-76
2023/07/25 06:00:22;;;;;;;2.08;0.80;;;18.80;93.30;;;;;;5121636;28;20035;-77
2023/07/25 06:02:48;;;;;;;2.85;0.60;;;18.90;93.40;;;;;;5121934;28;20032;-77
2023/07/25 06:05:14;;;;;;;3.17;0.77;;;19.00;93.40;;;;;;5102763;28;20024;-76
2023/07/25 06:07:40;;;;;;;4.65;0.98;;;19.10;93.40;;;;;;5124253;28;20046;-77
2023/07/25 06:10:06;;;;;;;3.28;0.70;;;19.00;93.00;;;;;;5105001;28;20019;-77
2023/07/25 06:12:32;;;;;;;2.97;0.73;;;19.10;93.20;;;;;;5105240;28;20035;-76
2023/07/25 06:14:58;;;;;;;4.72;0.80;;;19.10;93.30;;;;;;5123302;28;20069;-76
2023/07/25 06:17:24;;;;;;;3.95;0.80;;;19.10;93.10;;;;;;5124181;28;20321;-78
2023/07/25 06:19:49;;;;;;;3.38;0.80;;;19.10;93.10;;;;;;5124919;28;20480;-77
2023/07/25 06:22:15;;;;;;;3.60;1.00;;;19.00;92.90;;;;;;5126634;28;20081;-77
2023/07/25 06:24:42;;;;;;;2.55;0.90;;;18.90;92.90;;;;;;5126281;28;20023;-77
2023/07/25 06:27:07;;;;;;;5.80;1.08;;;18.80;93.10;;;;;;5109387;28;20516;-77
2023/07/25 06:29:33;;;;;;;4.07;1.45;;;18.80;93.10;;;;;;5126606;28;20028;-77
2023/07/25 06:32:02;;;;;;;4.30;1.00;;;18.80;93.30;;;;;;5108507;28;20055;-77
2023/07/25 06:34:27;;;;;;;2.78;0.85;;;18.80;93.40;;;;;;5125622;28;20110;-78
2023/07/25 06:36:55;;;;;;;4.95;1.10;;;18.90;93.50;;;;;;5124302;28;20051;-77
2023/07/25 06:39:21;;;;;;;4.63;0.77;;;18.90;93.30;;;;;;5106201;28;20216;-77
2023/07/25 06:41:47;;;;;;;2.95;0.70;;;18.90;93.40;;;;;;5106066;28;20077;-77
2023/07/25 06:44:13;;;;;;;4.40;1.50;;;18.90;93.40;;;;;;5124333;28;20111;-77
2023/07/25 06:46:38;;;;;;;7.18;1.42;;;19.00;93.50;;;;;;5126443;28;20023;-77
2023/07/25 06:49:04;;;;;;;3.10;0.90;;;18.90;93.40;;;;;;5108997;28;20039;-77
2023/07/25 06:51:29;;;;;;;5.38;1.48;;;18.90;93.30;;;;;;5108229;28;20051;-76
2023/07/25 06:53:55;;;;;;;5.40;1.65;;;18.90;93.40;;;;;;5124895;28;20039;-77
2023/07/25 06:56:21;;;;;;;7.22;1.50;;;18.90;93.30;;;;;;5103113;28;20071;-77
2023/07/25 06:58:47;;;;;;;6.32;1.30;;;18.90;93.30;;;;;;5105744;28;20570;-77
2023/07/25 07:01:12;;;;;;;4.72;0.75;;;18.90;93.50;;;;;;5105581;28;20048;-76
2023/07/25 07:03:38;;;;;;;5.13;1.08;;;18.80;93.70;;;;;;5105803;28;20031;-76
2023/07/25 07:06:04;;;;;;;3.35;0.55;;;18.70;93.90;;;;;;5105532;28;20028;-77
2023/07/25 07:08:29;;;;;;;3.22;0.73;;;18.70;94.00;;;;;;5100870;28;20495;-76
2023/07/25 07:10:56;;;;;;;3.55;0.98;;;18.80;94.10;;;;;;5099263;28;20035;-77
2023/07/25 07:13:22;;;;;;;1.77;0.55;;;18.80;94.00;;;;;;5100170;28;20058;-76
2023/07/25 07:15:49;;;;;;;3.80;0.70;;;18.80;94.00;;;;;;5101087;28;20028;-77
2023/07/25 07:18:15;;;;;;;3.25;0.82;;;18.80;93.80;;;;;;5098468;28;20494;-76
2023/07/25 07:20:50;;;;;;;2.92;1.02;;;18.90;93.60;;;;;;5099172;28;20035;-77
2023/07/25 07:23:16;;;;;;;2.63;0.63;;;18.90;93.70;;;;;;5100825;28;20368;-76
2023/07/25 07:25:43;;;;;;;5.15;0.68;;;18.90;93.80;;;;;;5099114;28;20040;-76
2023/07/25 07:28:09;;;;;;;3.95;0.55;;;18.90;93.50;;;;;;5097892;28;20077;-76
2023/07/25 07:30:34;;;;;;;1.80;0.30;;;18.90;93.50;;;;;;5096916;28;20028;-78
2023/07/25 07:33:00;;;;;;;3.85;0.50;;;18.80;93.50;;;;;;5098095;28;20111;-76
2023/07/25 07:35:26;;;;;;;2.72;0.70;;;18.90;93.60;;;;;;5098127;28;20036;-77
2023/07/25 07:37:51;;;;;;;3.28;0.90;;;19.00;93.40;;;;;;5101109;28;20036;-77
2023/07/25 07:40:17;;;;;;;4.90;0.65;;;18.90;93.50;;;;;;5102065;28;20039;-78
2023/07/25 07:42:43;;;;;;;3.08;0.60;;;18.80;93.30;;;;;;5102445;28;20039;-77
2023/07/25 07:45:09;;;;;;;2.75;0.40;;;18.70;93.60;;;;;;5103439;28;20028;-76
2023/07/25 07:47:34;;;;;;;3.72;0.40;;;18.70;93.40;;;;;;5102997;28;20066;-77
2023/07/25 07:50:00;;;;;;;4.10;0.60;;;18.60;92.90;;;;;;5102508;28;20040;-77
2023/07/25 07:52:26;;;;;;;3.90;0.82;;;18.60;93.20;;;;;;5103318;28;20032;-77
2023/07/25 07:54:52;;;;;;;4.18;0.38;;;18.60;93.20;;;;;;5101422;28;20508;-79
2023/07/25 07:57:18;;;;;;;2.25;0.30;;;18.60;93.10;;;;;;5099708;28;20063;-78
2023/07/25 07:59:44;;;;;;;6.00;0.52;;;18.70;93.10;;;;;;5103011;28;20035;-77
2023/07/25 08:02:10;;;;;;;4.22;0.40;;;18.80;92.70;;;;;;5102788;28;20380;-77
2023/07/25 08:04:35;;;;;;;3.53;0.50;;;18.90;92.20;;;;;;5105663;28;20051;-77
2023/07/25 08:07:01;;;;;;;3.55;0.60;;;18.90;92.10;;;;;;5108331;28;20095;-77
2023/07/25 08:09:27;;;;;;;2.53;0.57;;;18.90;92.10;;;;;;5103557;28;20086;-77
2023/07/25 08:11:52;;;;;;;4.20;0.50;;;19.00;92.30;;;;;;5086353;28;20042;-77
2023/07/25 08:14:18;;;;;;;3.45;0.40;;;19.10;92.10;;;;;;5103685;28;20028;-76
2023/07/25 08:16:43;;;;;;;3.47;0.60;;;19.10;91.90;;;;;;5104763;28;20038;-77
2023/07/25 08:19:09;;;;;;;2.72;0.38;;;18.90;91.50;;;;;;5102028;28;20039;-77
2023/07/25 08:21:35;;;;;;;5.72;0.63;;;18.70;91.80;;;;;;5103143;28;20055;-77
2023/07/25 08:24:00;;;;;;;4.43;0.35;;;18.80;92.40;;;;;;5103698;28;20024;-77
2023/07/25 08:26:26;;;;;;;2.50;0.65;;;18.90;92.50;;;;;;5102260;28;20082;-77
2023/07/25 08:28:52;;;;;;;1.98;0.43;;;19.00;91.90;;;;;;5103179;28;20040;-77
2023/07/25 08:31:17;;;;;;;3.08;0.32;;;19.10;91.80;;;;;;5101553;28;20056;-77
2023/07/25 08:33:44;;;;;;;3.47;0.40;;;19.10;91.00;;;;;;5103068;28;20031;-78
2023/07/25 08:36:10;;;;;;;1.60;0.50;;;19.00;90.80;;;;;;5099716;28;20024;-78
2023/07/25 08:38:36;;;;;;;3.47;0.30;;;19.00;91.20;;;;;;5100397;28;20024;-77
2023/07/25 08:41:09;;;;;;;4.28;0.85;;;19.10;91.40;;;;;;5099839;28;20040;-76
2023/07/25 08:43:38;;;;;;;4.25;0.40;;;19.10;91.00;;;;;;5100402;28;20039;-77
2023/07/25 08:46:08;;;;;;;3.70;0.52;;;19.10;91.60;;;;;;5101301;28;20055;-77
2023/07/25 08:48:38;;;;;;;3.25;0.30;;;19.30;91.60;;;;;;5099327;28;20059;-77
2023/07/25 08:51:26;;;;;;;2.83;0.45;;;19.20;90.90;;;;;;5098953;28;20111;-77
2023/07/25 08:54:09;;;;;;;4.05;0.38;;;19.20;91.10;;;;;;5100340;28;20028;-76
2023/07/25 08:56:37;;;;;;;2.53;0.38;;;19.20;91.30;;;;;;5118688;28;20047;-76
2023/07/25 08:59:04;;;;;;;3.10;0.50;;;19.30;91.50;;;;;;5119505;28;20032;-76
2023/07/25 09:01:31;;;;;;;2.97;0.35;;;19.30;91.70;;;;;;5119843;28;20058;-77
2023/07/25 09:03:58;;;;;;;2.72;0.30;;;19.30;91.70;;;;;;5120966;28;20031;-78
2023/07/25 09:06:24;;;;;;;2.55;0.40;;;19.30;91.70;;;;;;5122440;28;20037;-78
2023/07/25 09:08:56;;;;;;;3.70;0.65;;;19.30;91.50;;;;;;5120792;28;20027;-77
2023/07/25 09:11:22;;;;;;;7.47;0.70;;;19.30;91.10;;;;;;5122088;28;20038;-77
2023/07/25 09:13:49;;;;;;;2.97;0.30;;;19.30;91.10;;;;;;5120194;28;20110;-76
2023/07/25 09:16:15;;;;;;;4.28;0.30;;;19.20;90.90;;;;;;5085158;28;20035;-77
2023/07/25 09:18:41;;;;;;;2.55;0.30;;;19.10;90.80;;;;;;5119906;28;20110;-77
2023/07/25 09:21:07;;;;;;;2.78;0.20;;;19.20;90.60;;;;;;5120088;28;20081;-76
2023/07/25 09:23:34;;;;;;;2.45;0.10;;;19.50;90.30;;;;;;5102215;28;20415;-77
2023/07/25 09:26:05;;;;;;;1.65;0.30;;;19.50;88.70;;;;;;5119603;28;20452;-78
2023/07/25 09:28:31;;;;;;;2.03;0.35;;;19.70;89.10;;;;;;5119871;28;20566;-76
2023/07/25 09:30:57;;;;;;;4.00;0.40;;;19.90;89.80;;;;;;5119924;28;20035;-77
2023/07/25 09:33:28;;;;;;;2.83;0.22;;;20.00;87.20;;;;;;5119198;28;20031;-76
2023/07/25 09:35:54;;;;;;;2.45;0.20;;;20.20;86.80;;;;;;5118734;28;20042;-77
2023/07/25 09:38:20;;;;;;;1.75;0.20;;;20.20;85.30;;;;;;5119149;28;20027;-77
2023/07/25 09:40:52;;;;;;;4.32;0.20;;;20.20;83.10;;;;;;5118811;28;20482;-77
2023/07/25 09:43:36;;;;;;;2.50;0.20;;;20.40;83.10;;;;;;5119685;28;20521;-78
2023/07/25 09:46:02;;;;;;;0.95;0.13;;;20.60;82.40;;;;;;5101314;28;20168;-77
2023/07/25 09:48:27;;;;;;;1.65;0.20;;;20.60;80.90;;;;;;5118918;28;20073;-76
2023/07/25 09:50:53;;;;;;;2.58;0.10;;;20.40;79.80;;;;;;5101379;28;20035;-78
2023/07/25 09:53:18;;;;;;;4.68;0.17;;;20.30;81.20;;;;;;5119052;28;20088;-78
2023/07/25 09:55:45;;;;;;;2.75;0.10;;;20.30;81.50;;;;;;5118858;28;20123;-77
2023/07/25 09:58:12;;;;;;;4.20;0.20;;;20.40;79.50;;;;;;5119220;28;20035;-77
2023/07/25 10:00:38;;;;;;;0.93;0.20;;;20.50;79.80;;;;;;5101563;28;20036;-76
2023/07/25 10:03:07;;;;;;;1.50;0.10;;;20.80;79.80;;;;;;5118956;28;20537;-77
2023/07/25 10:05:34;;;;;;;1.80;0.50;;;20.90;76.90;;;;;;5117420;28;20484;-77
2023/07/25 10:08:00;;;;;;;2.47;0.20;;;21.20;76.70;;;;;;5098840;28;20039;-77
2023/07/25 10:10:28;;;;;;;2.95;0.20;;;21.20;76.70;;;;;;5101191;28;20114;-76
2023/07/25 10:12:54;;;;;;;2.05;0.20;;;21.20;75.80;;;;;;5119641;28;20110;-77
2023/07/25 10:15:20;;;;;;;1.20;0.10;;;21.20;75.80;;;;;;5119338;28;20031;-77
2023/07/25 10:17:46;;;;;;;1.20;0.10;;;21.30;75.10;;;;;;5119726;28;20060;-78
2023/07/25 10:20:24;;;;;;;1.63;0.10;;;21.40;75.70;;;;;;5120033;28;20023;-77
2023/07/25 10:22:50;;;;;;;3.40;0.15;;;21.50;73.00;;;;;;5120882;28;20085;-76
2023/07/25 10:25:26;;;;;;;2.92;0.10;;;21.50;72.40;;;;;;5119943;28;20019;-76
2023/07/25 10:27:59;;;;;;;2.00;0.20;;;21.50;74.40;;;;;;5119763;28;20151;-77
2023/07/25 10:30:27;;;;;;;1.27;0.05;;;21.40;72.90;;;;;;5119441;28;20107;-77
2023/07/25 10:32:56;;;;;;;3.45;0.20;;;21.10;72.30;;;;;;5119530;28;20027;-76
2023/07/25 10:35:53;;;;;;;2.55;0.20;;;21.00;73.40;;;;;;5118717;28;20028;-77
2023/07/25 10:38:23;;;;;;;1.25;0.10;;;21.10;75.50;;;;;;5119386;28;20032;-77
2023/07/25 10:40:55;;;;;;;1.02;0.10;;;21.40;74.50;;;;;;5118994;28;20028;-77
2023/07/25 10:43:26;;;;;;;1.05;0.10;;;21.50;75.10;;;;;;5120060;28;20028;-77
2023/07/25 10:45:53;;;;;;;2.28;0.10;;;21.80;74.10;;;;;;5119814;28;20344;-77
2023/07/25 10:48:34;;;;;;;2.70;0.20;;;21.90;70.90;;;;;;5118819;28;20036;-77
2023/07/25 10:51:03;;;;;;;2.17;0.10;;;21.90;71.10;;;;;;5120054;28;20118;-77
2023/07/25 10:53:29;;;;;;;1.00;0.10;;;21.90;71.20;;;;;;5124004;28;20054;-77
2023/07/25 10:56:04;;;;;;;0.70;0.10;;;21.80;68.70;;;;;;5124297;28;20095;-79
2023/07/25 10:58:30;;;;;;;2.20;0.20;;;21.90;71.90;;;;;;5103366;28;20039;-77
2023/07/25 11:00:57;;;;;;;1.48;0.10;;;22.10;72.60;;;;;;5126091;28;20099;-77
2023/07/25 11:03:36;;;;;;;2.55;0.10;;;22.20;71.80;;;;;;5123796;28;20096;-76
2023/07/25 11:06:08;;;;;;;1.30;0.10;;;22.40;70.80;;;;;;5125748;28;20111;-76
2023/07/25 11:08:34;;;;;;;1.38;0.10;;;22.50;70.70;;;;;;5122619;28;20057;-76
2023/07/25 11:11:04;;;;;;;1.88;0.13;;;22.70;69.90;;;;;;5123632;28;20100;-76
2023/07/25 11:13:34;;;;;;;3.15;0.20;;;22.90;70.30;;;;;;5107957;28;20054;-77
2023/07/25 11:16:08;;;;;;;1.85;0.20;;;22.80;66.50;;;;;;5123907;28;20032;-76
2023/07/25 11:18:38;;;;;;;1.52;0.20;;;22.60;69.60;;;;;;5123184;28;20063;-76
2023/07/25 11:21:06;;;;;;;1.88;0.20;;;22.50;67.50;;;;;;5085071;28;20520;-76
2023/07/25 11:23:32;;;;;;;1.92;0.20;;;22.20;67.00;;;;;;5101796;28;20030;-75
2023/07/25 11:26:02;;;;;;;2.83;0.20;;;22.00;67.50;;;;;;5118500;28;20094;-74
2023/07/25 11:28:27;;;;;;;3.67;0.10;;;21.80;66.90;;;;;;5098904;28;20476;-75
2023/07/25 11:30:53;;;;;;;1.42;0.20;;;21.60;67.80;;;;;;5098014;28;20039;-74
2023/07/25 11:33:20;;;;;;;0.65;0.10;;;21.60;68.30;;;;;;5116856;28;20024;-74
2023/07/25 11:35:52;;;;;;;1.65;0.55;;;21.60;68.40;;;;;;5098158;28;20106;-74
2023/07/25 11:38:18;;;;;;;2.03;0.30;;;21.60;68.40;;;;;;5116996;28;20034;-73
2023/07/25 11:40:50;;;;;;;2.75;0.20;;;21.80;69.90;;;;;;5098070;28;20032;-73
2023/07/25 11:43:16;;;;;;;2.30;0.30;;;22.10;70.20;;;;;;5116766;28;20020;-74
2023/07/25 11:45:44;;;;;;;1.83;0.10;;;22.20;66.80;;;;;;5116399;28;20035;-75
2023/07/25 11:48:10;;;;;;;0.43;0.00;;;22.20;63.30;;;;;;5117219;28;20059;-74
2023/07/25 11:50:35;;;;;;;1.58;0.10;;;22.00;62.90;;;;;;5097798;28;20481;-74
2023/07/25 11:53:02;;;;;;;0.38;0.10;;;21.90;62.40;;;;;;5115513;28;20070;-74
2023/07/25 11:55:28;;;;;;;1.50;0.03;;;21.70;64.10;;;;;;5094002;28;20060;-74
2023/07/25 11:57:54;;;;;;;0.40;0.10;;;21.70;64.70;;;;;;5094474;28;20039;-75
2023/07/25 12:00:22;;;;;;;0.85;0.10;;;21.80;65.10;;;;;;5095833;28;20093;-74
2023/07/25 12:02:48;;;;;;;2.38;0.10;;;21.90;63.40;;;;;;5095593;28;20124;-75
2023/07/25 12:05:27;;;;;;;0.60;0.03;;;22.00;64.00;;;;;;5095078;28;20069;-75
2023/07/25 12:07:58;;;;;;;0.93;0.00;;;22.20;66.70;;;;;;5095562;28;20039;-75
2023/07/25 12:10:26;;;;;;;1.13;0.30;;;22.40;65.30;;;;;;5096166;28;20051;-75
2023/07/25 12:12:57;;;;;;;2.03;0.10;;;22.60;65.20;;;;;;5095313;28;20503;-75
2023/07/25 12:15:40;;;;;;;3.20;0.10;;;22.60;59.70;;;;;;5094736;28;20032;-75
2023/07/25 12:18:12;;;;;;;4.07;0.10;;;22.60;60.80;;;;;;5095412;28;20024;-75
2023/07/25 12:20:40;;;;;;;2.10;0.10;;;22.80;62.60;;;;;;5095345;28;20471;-74
2023/07/25 12:23:06;;;;;;;1.90;0.10;;;22.80;63.40;;;;;;5095417;28;20040;-75
2023/07/25 12:25:35;;;;;;;1.45;0.25;;;22.90;63.70;;;;;;5093864;28;20024;-75
2023/07/25 12:28:01;;;;;;;3.05;0.20;;;23.00;64.00;;;;;;5095106;28;20036;-75
2023/07/25 12:30:27;;;;;;;2.10;0.35;;;23.00;63.10;;;;;;5095162;28;20434;-76
2023/07/25 12:32:53;;;;;;;1.55;0.10;;;23.10;63.30;;;;;;5095306;28;20119;-75
2023/07/25 12:35:18;;;;;;;1.10;0.30;;;23.20;64.60;;;;;;5093791;28;20039;-75
2023/07/25 12:37:44;;;;;;;0.38;0.03;;;23.40;63.70;;;;;;5094867;28;20396;-75
2023/07/25 12:40:10;;;;;;;2.08;0.20;;;23.20;63.60;;;;;;5093882;28;20028;-75
2023/07/25 12:42:36;;;;;;;2.83;0.20;;;23.00;64.90;;;;;;5095429;28;20032;-75
2023/07/25 12:45:05;;;;;;;1.67;0.10;;;22.80;66.80;;;;;;5094329;28;20039;-75